Time;durP1;ratioP1;P1;durP2;ratioP2;P2;SDS_P1;SDS_P2;PMS_P1;PMS_P2;Temp;Humidity;BMP_temperature;BMP_pressure;BME280_temperature;BME280_humidity;BME280_pressure;Samples;Min_cycle;Max_cycle;Signal;HPM_P1;HPM_P2
2022/07/09 00:01:54;;;;;;;4.43;2.25;;;15.40;99.60;;;;;;5033581;28;20213;-79
2022/07/09 00:04:19;;;;;;;5.13;2.20;;;15.40;99.80;;;;;;5033137;28;20228;-79
2022/07/09 00:06:45;;;;;;;2.65;2.42;;;15.30;99.70;;;;;;5033731;28;20186;-79
2022/07/09 00:09:10;;;;;;;3.17;1.85;;;15.30;99.70;;;;;;5033776;28;20174;-78
2022/07/09 00:11:36;;;;;;;4.30;1.88;;;15.30;99.90;;;;;;5033605;28;20213;-79
2022/07/09 00:14:01;;;;;;;5.55;2.22;;;15.20;99.90;;;;;;5033438;28;20730;-79
2022/07/09 00:16:27;;;;;;;2.60;2.40;;;15.20;99.90;;;;;;5033512;28;20186;-80
2022/07/09 00:18:52;;;;;;;3.28;1.92;;;15.20;99.90;;;;;;5015361;28;20182;-77
2022/07/09 00:21:18;;;;;;;2.00;1.80;;;15.10;99.90;;;;;;5015029;28;20204;-79
2022/07/09 00:23:43;;;;;;;2.40;1.70;;;15.10;99.90;;;;;;5033177;28;20200;-79
2022/07/09 00:26:09;;;;;;;1.88;1.70;;;15.10;99.90;;;;;;5033284;28;20190;-78
2022/07/09 00:28:34;;;;;;;2.20;1.98;;;15.00;99.90;;;;;;5014981;28;20179;-78
2022/07/09 00:31:00;;;;;;;5.50;2.10;;;15.00;99.90;;;;;;5032574;28;20202;-80
2022/07/09 00:33:26;;;;;;;3.58;1.95;;;15.00;99.90;;;;;;5033167;28;20186;-79
2022/07/09 00:35:51;;;;;;;2.05;1.90;;;15.00;99.90;;;;;;5032988;28;20178;-80
2022/07/09 00:38:17;;;;;;;3.58;1.80;;;14.90;99.90;;;;;;5032965;28;20204;-79
2022/07/09 00:40:42;;;;;;;3.10;1.77;;;14.80;99.90;;;;;;5032180;28;20225;-80
2022/07/09 00:43:18;;;;;;;2.97;1.60;;;14.80;99.90;;;;;;5032984;28;20197;-79
2022/07/09 00:45:45;;;;;;;2.70;1.92;;;14.80;99.90;;;;;;5032921;28;20204;-79
2022/07/09 00:48:10;;;;;;;3.63;2.10;;;14.80;99.90;;;;;;5032561;28;20257;-79
2022/07/09 00:50:36;;;;;;;2.40;1.90;;;14.80;99.90;;;;;;5032387;28;20272;-79
2022/07/09 00:53:02;;;;;;;3.28;2.03;;;14.80;99.90;;;;;;5033074;28;20264;-79
2022/07/09 00:55:28;;;;;;;4.07;2.10;;;14.80;99.90;;;;;;5032676;28;20197;-79
2022/07/09 00:57:54;;;;;;;2.30;1.80;;;14.70;99.90;;;;;;5032595;28;20189;-80
2022/07/09 01:00:20;;;;;;;4.90;2.00;;;14.70;99.90;;;;;;5032799;28;20698;-80
2022/07/09 01:02:47;;;;;;;3.03;1.80;;;14.70;99.90;;;;;;5032624;28;20185;-80
2022/07/09 01:05:12;;;;;;;3.67;2.10;;;14.70;99.90;;;;;;5014128;28;20185;-80
2022/07/09 01:07:38;;;;;;;3.15;2.10;;;14.60;99.90;;;;;;5032607;28;20183;-79
2022/07/09 01:10:04;;;;;;;1.80;1.70;;;14.60;99.90;;;;;;5032570;28;20178;-79
2022/07/09 01:12:30;;;;;;;5.63;2.13;;;14.60;99.90;;;;;;5031813;28;20236;-82
2022/07/09 01:14:56;;;;;;;3.03;2.15;;;14.60;99.90;;;;;;5026571;28;20264;-78
2022/07/09 01:17:21;;;;;;;2.17;1.98;;;14.60;99.90;;;;;;5031917;28;20704;-77
2022/07/09 01:19:47;;;;;;;2.22;2.03;;;14.60;99.90;;;;;;5031836;28;20288;-77
2022/07/09 01:22:12;;;;;;;3.70;1.98;;;14.60;99.90;;;;;;5031858;28;20186;-78
2022/07/09 01:24:38;;;;;;;3.40;2.15;;;14.60;99.90;;;;;;5032003;28;20240;-78
2022/07/09 01:27:03;;;;;;;2.25;1.60;;;14.50;99.90;;;;;;5031900;28;20617;-77
2022/07/09 01:29:29;;;;;;;2.85;2.28;;;14.50;99.90;;;;;;5031811;28;20645;-78
2022/07/09 01:31:55;;;;;;;3.95;1.83;;;14.50;99.90;;;;;;5032003;28;20213;-78
2022/07/09 01:34:20;;;;;;;2.85;1.90;;;14.40;99.90;;;;;;5031277;28;20224;-80
2022/07/09 01:36:46;;;;;;;4.72;2.00;;;14.40;99.90;;;;;;5031683;28;20238;-81
2022/07/09 01:39:11;;;;;;;6.15;2.00;;;14.40;99.90;;;;;;5031902;28;20251;-77
2022/07/09 01:41:37;;;;;;;1.88;1.77;;;14.40;99.90;;;;;;5031649;28;20186;-77
2022/07/09 01:44:04;;;;;;;4.95;2.00;;;14.40;99.90;;;;;;5031534;28;20198;-77
2022/07/09 01:46:29;;;;;;;3.92;1.77;;;14.30;99.90;;;;;;5031854;28;20272;-79
2022/07/09 01:48:55;;;;;;;2.78;2.00;;;14.30;99.90;;;;;;5031408;28;20645;-77
2022/07/09 01:51:22;;;;;;;3.75;1.98;;;14.30;99.90;;;;;;5013001;28;20696;-79
2022/07/09 01:53:47;;;;;;;4.07;2.10;;;14.20;99.90;;;;;;5031889;28;20189;-79
2022/07/09 01:56:13;;;;;;;6.22;2.00;;;14.20;99.90;;;;;;5031446;28;20324;-79
2022/07/09 01:58:39;;;;;;;3.05;1.85;;;14.20;99.90;;;;;;5031552;28;20633;-78
2022/07/09 02:01:05;;;;;;;2.72;1.75;;;14.10;99.90;;;;;;5031578;28;20667;-80
2022/07/09 02:03:30;;;;;;;3.47;2.03;;;14.10;99.90;;;;;;5030973;28;20197;-80
2022/07/09 02:05:56;;;;;;;2.83;2.08;;;14.10;99.90;;;;;;5031805;28;20664;-79
2022/07/09 02:08:23;;;;;;;2.60;2.00;;;14.10;99.90;;;;;;5031255;28;20224;-77
2022/07/09 02:10:49;;;;;;;2.47;2.00;;;14.00;99.90;;;;;;5031140;28;20189;-77
2022/07/09 02:13:15;;;;;;;3.05;2.00;;;14.00;99.90;;;;;;5031405;28;20799;-77
2022/07/09 02:15:40;;;;;;;5.15;2.53;;;14.00;99.90;;;;;;5031317;28;20202;-78
2022/07/09 02:18:06;;;;;;;3.65;2.55;;;14.00;99.90;;;;;;5031016;28;20247;-78
2022/07/09 02:20:32;;;;;;;4.40;2.08;;;13.90;99.90;;;;;;5030912;28;20178;-80
2022/07/09 02:22:58;;;;;;;5.03;2.40;;;13.90;99.90;;;;;;5027816;28;20174;-78
2022/07/09 02:25:23;;;;;;;4.32;2.72;;;13.90;99.90;;;;;;5030930;28;20255;-77
2022/07/09 02:27:49;;;;;;;7.22;3.30;;;13.90;99.90;;;;;;5031278;28;20181;-77
2022/07/09 02:30:14;;;;;;;4.80;2.22;;;13.90;99.90;;;;;;5030706;28;20629;-76
2022/07/09 02:32:40;;;;;;;2.65;2.05;;;13.90;99.90;;;;;;5031090;28;20239;-76
2022/07/09 02:35:06;;;;;;;3.55;2.10;;;13.80;99.90;;;;;;5030925;28;20640;-76
2022/07/09 02:37:32;;;;;;;3.70;2.38;;;13.80;99.90;;;;;;5022478;28;20265;-77
2022/07/09 02:39:58;;;;;;;2.88;2.10;;;13.70;99.90;;;;;;5011870;28;20321;-77
2022/07/09 02:42:23;;;;;;;3.17;1.88;;;13.70;99.90;;;;;;5030526;28;20178;-77
2022/07/09 02:44:49;;;;;;;4.80;2.35;;;13.70;99.90;;;;;;5031052;28;20680;-76
2022/07/09 02:47:15;;;;;;;5.10;2.13;;;13.70;99.90;;;;;;5030324;28;20201;-77
2022/07/09 02:49:41;;;;;;;2.90;2.08;;;13.70;99.90;;;;;;5030624;28;20190;-78
2022/07/09 02:52:06;;;;;;;2.63;2.10;;;13.70;99.90;;;;;;5012831;28;20218;-77
2022/07/09 02:54:33;;;;;;;4.20;2.22;;;13.70;99.90;;;;;;5030375;28;20328;-76
2022/07/09 02:57:00;;;;;;;3.03;2.08;;;13.60;99.90;;;;;;5030525;28;20196;-77
2022/07/09 02:59:25;;;;;;;3.05;2.10;;;13.70;99.90;;;;;;5030967;28;20178;-79
2022/07/09 03:01:51;;;;;;;3.30;2.10;;;13.60;99.90;;;;;;5030569;28;20269;-79
2022/07/09 03:04:17;;;;;;;4.70;2.30;;;13.60;99.90;;;;;;5032982;28;20209;-78
2022/07/09 03:06:42;;;;;;;2.15;1.95;;;13.60;99.90;;;;;;5016953;28;20634;-76
2022/07/09 03:09:08;;;;;;;6.13;2.67;;;13.60;99.90;;;;;;5034372;28;20186;-77
2022/07/09 03:11:33;;;;;;;3.65;2.20;;;13.60;99.90;;;;;;5034051;28;20287;-78
2022/07/09 03:13:59;;;;;;;2.30;1.95;;;13.60;99.90;;;;;;5034661;28;20269;-78
2022/07/09 03:16:24;;;;;;;2.97;2.40;;;13.50;99.90;;;;;;5016609;28;20178;-78
2022/07/09 03:18:50;;;;;;;5.43;2.28;;;13.60;99.90;;;;;;5016252;28;20186;-78
2022/07/09 03:21:15;;;;;;;3.15;2.15;;;13.50;99.90;;;;;;5033816;28;20178;-77
2022/07/09 03:23:41;;;;;;;5.22;2.35;;;13.60;99.90;;;;;;5034494;28;20236;-77
2022/07/09 03:26:06;;;;;;;2.67;2.40;;;13.60;99.90;;;;;;5033774;28;20672;-77
2022/07/09 03:28:33;;;;;;;4.20;2.45;;;13.50;99.90;;;;;;5034058;28;20220;-76
2022/07/09 03:30:59;;;;;;;4.38;2.65;;;13.50;99.90;;;;;;5033772;28;20265;-78
2022/07/09 03:33:25;;;;;;;5.18;2.80;;;13.50;99.90;;;;;;5034185;28;20253;-79
2022/07/09 03:35:53;;;;;;;5.43;2.78;;;13.50;99.90;;;;;;5033455;28;20719;-79
2022/07/09 03:38:18;;;;;;;3.10;2.50;;;13.50;99.90;;;;;;5033494;28;20398;-84
2022/07/09 03:40:44;;;;;;;5.32;2.72;;;13.50;99.90;;;;;;5033661;28;20222;-81
2022/07/09 03:43:09;;;;;;;5.50;2.90;;;13.40;99.90;;;;;;5033864;28;20657;-83
2022/07/09 03:45:35;;;;;;;2.72;2.53;;;13.40;99.90;;;;;;5032430;28;20240;-80
2022/07/09 03:48:00;;;;;;;4.05;2.60;;;13.40;99.90;;;;;;5033145;28;20539;-79
2022/07/09 03:50:26;;;;;;;2.92;2.22;;;13.30;99.90;;;;;;5016051;28;20187;-80
2022/07/09 03:52:51;;;;;;;2.53;2.33;;;13.30;99.90;;;;;;5034211;28;20218;-80
2022/07/09 03:55:17;;;;;;;2.85;2.53;;;13.30;99.90;;;;;;5033748;28;20174;-82
2022/07/09 03:57:42;;;;;;;6.45;2.60;;;13.40;99.90;;;;;;5033866;28;20204;-82
2022/07/09 04:00:08;;;;;;;3.78;2.40;;;13.40;99.90;;;;;;5034568;28;20711;-83
2022/07/09 04:02:34;;;;;;;2.63;2.20;;;13.40;99.90;;;;;;5033425;28;20189;-83
2022/07/09 04:04:59;;;;;;;2.80;2.40;;;13.50;99.90;;;;;;5033856;28;20197;-81
2022/07/09 04:07:26;;;;;;;3.72;2.38;;;13.50;99.90;;;;;;5033372;28;20254;-83
2022/07/09 04:09:53;;;;;;;5.10;2.60;;;13.50;99.90;;;;;;5033820;28;20174;-82
2022/07/09 04:12:19;;;;;;;3.72;2.63;;;13.50;99.90;;;;;;5033566;28;20213;-83
2022/07/09 04:14:45;;;;;;;4.45;2.40;;;13.50;99.90;;;;;;5033145;28;20280;-81
2022/07/09 04:17:11;;;;;;;3.72;2.35;;;13.60;99.90;;;;;;5033201;28;20275;-80
2022/07/09 04:19:36;;;;;;;4.75;2.42;;;13.60;99.90;;;;;;5032479;28;20257;-81
2022/07/09 04:22:02;;;;;;;3.15;2.38;;;13.70;99.90;;;;;;5032926;28;20284;-82
2022/07/09 04:24:28;;;;;;;7.50;2.70;;;13.80;99.90;;;;;;5033825;28;20185;-84
2022/07/09 04:26:54;;;;;;;3.22;2.30;;;13.90;99.90;;;;;;5015506;28;20193;-84
2022/07/09 04:29:19;;;;;;;3.13;2.20;;;14.00;99.90;;;;;;5033267;28;20182;-84
2022/07/09 04:31:45;;;;;;;6.65;2.45;;;14.20;99.90;;;;;;5015312;28;20218;-80
2022/07/09 04:34:10;;;;;;;2.75;2.15;;;14.50;99.90;;;;;;5032681;28;20189;-77
2022/07/09 04:36:36;;;;;;;3.78;1.92;;;14.80;99.90;;;;;;5015318;28;20258;-78
2022/07/09 04:39:02;;;;;;;2.67;2.05;;;15.20;99.90;;;;;;5032938;28;20208;-78
2022/07/09 04:41:28;;;;;;;2.85;2.03;;;15.50;99.90;;;;;;5032766;28;20183;-79
2022/07/09 04:43:54;;;;;;;2.20;2.00;;;15.90;99.90;;;;;;5032200;28;20201;-80
2022/07/09 04:46:21;;;;;;;2.30;2.10;;;16.30;99.90;;;;;;5033223;28;20175;-79
2022/07/09 04:48:47;;;;;;;2.67;1.98;;;16.60;99.90;;;;;;5032881;28;20268;-78
2022/07/09 04:51:12;;;;;;;6.50;2.10;;;16.90;99.90;;;;;;5014908;28;20628;-82
2022/07/09 04:53:38;;;;;;;3.90;2.47;;;17.20;99.90;;;;;;5032756;28;20178;-79
2022/07/09 04:56:04;;;;;;;2.67;2.10;;;17.50;99.60;;;;;;5032921;28;20641;-79
2022/07/09 04:58:30;;;;;;;1.85;1.75;;;17.80;99.00;;;;;;5032707;28;20190;-80
2022/07/09 05:00:55;;;;;;;3.95;1.85;;;18.30;98.30;;;;;;5032863;28;20189;-82
2022/07/09 05:03:21;;;;;;;3.53;2.00;;;18.80;97.50;;;;;;5032582;28;20187;-81
2022/07/09 05:05:46;;;;;;;2.10;1.60;;;19.30;96.70;;;;;;5032537;28;20182;-80
2022/07/09 05:08:12;;;;;;;3.47;1.80;;;19.90;95.70;;;;;;5032507;28;20400;-80
2022/07/09 05:10:38;;;;;;;4.10;1.70;;;20.40;94.50;;;;;;5014223;28;20179;-81
2022/07/09 05:13:03;;;;;;;6.55;3.20;;;20.80;93.20;;;;;;5032205;28;20233;-81
2022/07/09 05:15:32;;;;;;;7.38;3.38;;;21.30;92.30;;;;;;5032533;28;20197;-75
2022/07/09 05:17:57;;;;;;;6.25;2.85;;;21.70;91.30;;;;;;5032320;28;20189;-76
2022/07/09 05:20:24;;;;;;;7.47;3.08;;;22.00;90.30;;;;;;5032221;28;20232;-78
2022/07/09 05:22:49;;;;;;;9.23;3.35;;;22.40;88.90;;;;;;5027180;28;20230;-75
2022/07/09 05:25:15;;;;;;;7.22;3.55;;;22.80;87.30;;;;;;5032383;28;20618;-67
2022/07/09 05:27:45;;;;;;;7.50;3.30;;;23.10;85.50;;;;;;5031025;28;20174;-71
2022/07/09 05:30:14;;;;;;;5.57;2.88;;;23.40;83.80;;;;;;5031999;28;20657;-75
2022/07/09 05:32:39;;;;;;;6.28;3.28;;;23.70;80.90;;;;;;5031927;28;20312;-78
2022/07/09 05:35:05;;;;;;;6.68;2.50;;;24.20;79.20;;;;;;5032310;28;20261;-68
2022/07/09 05:37:31;;;;;;;3.78;2.70;;;24.60;76.60;;;;;;5031943;28;20175;-69
2022/07/09 05:39:57;;;;;;;3.22;1.70;;;25.00;75.20;;;;;;5032027;28;20276;-66
2022/07/09 05:42:23;;;;;;;7.38;3.00;;;25.50;73.30;;;;;;5032125;28;20174;-65
2022/07/09 05:44:49;;;;;;;8.07;3.75;;;25.90;71.90;;;;;;5013610;28;20654;-71
2022/07/09 05:47:15;;;;;;;7.75;2.95;;;26.30;69.90;;;;;;5031386;28;20236;-69
2022/07/09 05:49:41;;;;;;;20.17;7.05;;;26.80;68.30;;;;;;5024120;28;20580;-72
2022/07/09 05:52:06;;;;;;;11.25;5.03;;;27.30;66.40;;;;;;5015048;28;20213;-75
2022/07/09 05:54:32;;;;;;;10.55;3.78;;;27.70;63.70;;;;;;5031720;28;20628;-72
2022/07/09 05:56:57;;;;;;;11.32;4.90;;;28.00;61.50;;;;;;5032203;28;20182;-73
2022/07/09 05:59:23;;;;;;;9.50;3.28;;;28.20;60.90;;;;;;5031300;28;20174;-74
2022/07/09 06:01:48;;;;;;;8.93;3.42;;;28.50;59.50;;;;;;5031661;28;20559;-78
2022/07/09 06:04:14;;;;;;;4.25;2.40;;;28.90;58.00;;;;;;5031232;28;20488;-72
2022/07/09 06:06:39;;;;;;;3.58;2.03;;;29.10;57.90;;;;;;5032121;28;20536;-72
2022/07/09 06:09:05;;;;;;;5.53;3.17;;;29.60;57.00;;;;;;5024460;28;20183;-69
2022/07/09 06:11:31;;;;;;;8.43;3.35;;;29.70;55.30;;;;;;5028786;28;20244;-67
2022/07/09 06:13:56;;;;;;;7.75;3.00;;;29.80;55.00;;;;;;5040045;28;20190;-71
2022/07/09 06:16:22;;;;;;;6.70;3.08;;;30.00;55.10;;;;;;5046062;28;20199;-70
2022/07/09 06:18:47;;;;;;;3.25;1.88;;;29.70;54.40;;;;;;5030528;28;20194;-70
2022/07/09 06:21:13;;;;;;;2.70;1.80;;;28.80;54.40;;;;;;5031889;28;20266;-70
2022/07/09 06:23:38;;;;;;;1.85;1.67;;;28.10;56.10;;;;;;5012725;28;20519;-70
2022/07/09 06:26:04;;;;;;;4.93;1.48;;;27.80;56.30;;;;;;5012444;28;20222;-70
2022/07/09 06:28:29;;;;;;;4.00;1.83;;;27.60;58.00;;;;;;5012493;28;20187;-70
2022/07/09 06:30:55;;;;;;;3.95;1.58;;;27.70;58.50;;;;;;5012376;28;20229;-71
2022/07/09 06:33:20;;;;;;;4.03;2.65;;;28.10;57.60;;;;;;5012452;28;20546;-70
2022/07/09 06:35:46;;;;;;;2.08;1.63;;;28.70;56.90;;;;;;5012481;28;20186;-71
2022/07/09 06:38:11;;;;;;;2.63;1.40;;;29.30;56.00;;;;;;5029326;28;20290;-70
2022/07/09 06:40:37;;;;;;;3.65;1.42;;;29.60;55.00;;;;;;5055895;28;20711;-71
2022/07/09 06:43:03;;;;;;;3.47;2.10;;;29.50;54.50;;;;;;5040766;28;20276;-70
2022/07/09 06:45:29;;;;;;;1.60;1.50;;;29.10;54.50;;;;;;5035918;28;20170;-71
2022/07/09 06:47:54;;;;;;;3.08;1.80;;;28.60;55.40;;;;;;5017435;28;20224;-70
2022/07/09 06:50:20;;;;;;;4.40;1.75;;;28.10;56.60;;;;;;5035758;28;20169;-70
2022/07/09 06:52:46;;;;;;;4.03;1.80;;;27.80;56.90;;;;;;5035275;28;20213;-70
2022/07/09 06:55:12;;;;;;;3.53;2.13;;;27.50;57.50;;;;;;5035112;28;20209;-70
2022/07/09 06:57:37;;;;;;;3.35;1.70;;;27.30;58.70;;;;;;5032575;28;20194;-70
2022/07/09 07:00:07;;;;;;;5.68;1.70;;;27.60;58.50;;;;;;5035579;28;20170;-70
2022/07/09 07:02:33;;;;;;;4.00;1.85;;;28.40;57.60;;;;;;5030603;28;20645;-70
2022/07/09 07:04:59;;;;;;;3.00;1.55;;;28.70;56.90;;;;;;5028927;28;20225;-71
2022/07/09 07:07:24;;;;;;;5.75;1.95;;;28.80;56.50;;;;;;5027074;28;20563;-71
2022/07/09 07:09:50;;;;;;;3.60;1.42;;;28.70;56.60;;;;;;5028135;28;20190;-71
2022/07/09 07:12:15;;;;;;;4.43;2.47;;;29.10;55.70;;;;;;5025688;28;20301;-70
2022/07/09 07:14:41;;;;;;;2.00;1.50;;;29.30;55.10;;;;;;5025091;28;20174;-71
2022/07/09 07:17:07;;;;;;;2.05;1.55;;;29.50;55.60;;;;;;5031278;28;20193;-70
2022/07/09 07:19:33;;;;;;;4.30;1.65;;;30.20;55.00;;;;;;5029097;28;20190;-71
2022/07/09 07:21:58;;;;;;;6.35;2.08;;;31.00;53.20;;;;;;5032424;28;20182;-71
2022/07/09 07:24:24;;;;;;;4.05;1.60;;;31.70;53.00;;;;;;5034266;28;20240;-71
2022/07/09 07:26:49;;;;;;;3.78;1.73;;;31.90;51.40;;;;;;5033730;28;20637;-70
2022/07/09 07:29:15;;;;;;;4.88;1.70;;;32.20;50.80;;;;;;5034366;28;20566;-71
2022/07/09 07:31:40;;;;;;;2.30;1.45;;;32.50;51.20;;;;;;5034270;28;20728;-70
2022/07/09 07:34:06;;;;;;;2.03;1.52;;;32.70;50.20;;;;;;5034301;28;20200;-71
2022/07/09 07:36:31;;;;;;;4.68;1.58;;;32.60;49.80;;;;;;5033930;28;20273;-71
2022/07/09 07:38:57;;;;;;;3.10;1.50;;;32.60;49.60;;;;;;5034136;28;20629;-71
2022/07/09 07:41:23;;;;;;;2.67;1.60;;;32.80;49.20;;;;;;5034096;28;20236;-72
2022/07/09 07:43:48;;;;;;;2.92;1.60;;;33.20;50.00;;;;;;5026039;28;20232;-71
2022/07/09 07:46:14;;;;;;;28.98;21.02;;;33.40;49.10;;;;;;5032779;28;20192;-70
2022/07/09 07:48:42;;;;;;;19.63;13.15;;;33.50;48.00;;;;;;5016347;28;20192;-71
2022/07/09 07:51:09;;;;;;;6.00;2.90;;;33.80;47.80;;;;;;5014924;28;20235;-73
2022/07/09 07:53:35;;;;;;;4.93;3.03;;;33.50;47.00;;;;;;5030381;28;20200;-72
2022/07/09 07:56:01;;;;;;;10.23;4.78;;;33.40;48.50;;;;;;5034488;28;20169;-72
2022/07/09 07:58:27;;;;;;;4.70;2.55;;;33.80;47.40;;;;;;5033936;28;20182;-75
2022/07/09 08:00:53;;;;;;;4.68;2.67;;;34.50;46.70;;;;;;5034376;28;20180;-68
2022/07/09 08:03:18;;;;;;;5.13;2.53;;;34.90;45.80;;;;;;5033909;28;20190;-78
2022/07/09 08:05:44;;;;;;;3.83;1.83;;;35.20;45.20;;;;;;5034547;28;20177;-78
2022/07/09 08:08:09;;;;;;;2.95;1.70;;;35.40;44.70;;;;;;5033722;28;20186;-75
2022/07/09 08:10:35;;;;;;;2.58;1.67;;;35.50;45.00;;;;;;5034215;28;20178;-77
2022/07/09 08:13:00;;;;;;;2.25;1.38;;;35.70;43.60;;;;;;5012891;28;20292;-78
2022/07/09 08:15:26;;;;;;;1.60;1.33;;;35.90;43.70;;;;;;5020650;28;20174;-76
2022/07/09 08:17:52;;;;;;;2.20;1.23;;;35.70;43.50;;;;;;5016437;28;20184;-80
2022/07/09 08:20:19;;;;;;;2.40;1.73;;;35.50;43.30;;;;;;5033434;28;20182;-78
2022/07/09 08:22:45;;;;;;;2.95;1.30;;;35.30;44.10;;;;;;5034101;28;20177;-80
2022/07/09 08:25:11;;;;;;;3.28;1.40;;;35.20;44.10;;;;;;5033717;28;20273;-79
2022/07/09 08:27:36;;;;;;;2.42;1.60;;;35.00;44.10;;;;;;5033456;28;20212;-80
2022/07/09 08:30:02;;;;;;;2.85;1.20;;;34.90;44.00;;;;;;5014390;28;20189;-80
2022/07/09 08:32:28;;;;;;;4.18;1.40;;;35.10;44.30;;;;;;5033689;28;20213;-80
2022/07/09 08:34:54;;;;;;;2.85;0.93;;;35.30;44.20;;;;;;5033382;28;20178;-79
2022/07/09 08:37:20;;;;;;;1.17;1.13;;;35.20;44.00;;;;;;5031886;28;20235;-79
2022/07/09 08:39:45;;;;;;;1.23;1.10;;;34.70;43.50;;;;;;5033470;28;20217;-80
2022/07/09 08:42:11;;;;;;;2.45;0.85;;;34.30;45.50;;;;;;5033603;28;20177;-78
2022/07/09 08:44:39;;;;;;;2.40;1.15;;;34.30;45.40;;;;;;5033377;28;20736;-78
2022/07/09 08:47:05;;;;;;;2.20;1.17;;;34.40;44.70;;;;;;5032891;28;20230;-80
2022/07/09 08:49:32;;;;;;;2.42;1.00;;;34.60;44.80;;;;;;5033416;28;20189;-80
2022/07/09 08:51:57;;;;;;;1.15;0.88;;;34.60;44.40;;;;;;5032652;28;20205;-80
2022/07/09 08:54:23;;;;;;;1.45;0.90;;;34.40;44.20;;;;;;5033185;28;20550;-80
2022/07/09 08:56:52;;;;;;;3.83;1.02;;;34.50;45.30;;;;;;5033441;28;20186;-79
2022/07/09 08:59:18;;;;;;;2.30;1.05;;;34.60;44.30;;;;;;5032781;28;20174;-80
2022/07/09 09:01:44;;;;;;;0.98;0.75;;;34.70;43.00;;;;;;5033013;28;20239;-80
2022/07/09 09:04:10;;;;;;;2.13;1.27;;;34.80;43.50;;;;;;5015043;28;20224;-78
2022/07/09 09:06:42;;;;;;;4.38;1.30;;;34.90;44.80;;;;;;5032715;28;20272;-80
2022/07/09 09:09:08;;;;;;;4.75;1.50;;;34.90;43.70;;;;;;5033204;28;20231;-79
2022/07/09 09:11:36;;;;;;;1.08;0.98;;;34.90;45.20;;;;;;5032667;28;20240;-77
2022/07/09 09:14:02;;;;;;;1.73;1.35;;;34.90;45.20;;;;;;5033238;28;20603;-78
2022/07/09 09:16:27;;;;;;;2.35;1.38;;;34.90;44.60;;;;;;5032455;28;20534;-77
2022/07/09 09:18:53;;;;;;;2.63;1.15;;;35.10;44.10;;;;;;5028604;28;20175;-79
2022/07/09 09:21:21;;;;;;;2.00;1.05;;;35.20;44.50;;;;;;5026181;28;20178;-78
2022/07/09 09:23:54;;;;;;;1.50;0.85;;;34.60;44.10;;;;;;5033138;28;20253;-79
2022/07/09 09:26:22;;;;;;;1.55;0.90;;;33.80;44.70;;;;;;5032558;28;20687;-80
2022/07/09 09:28:57;;;;;;;2.20;1.00;;;33.60;46.00;;;;;;5032880;28;20606;-75
2022/07/09 09:31:33;;;;;;;2.15;0.77;;;33.80;46.00;;;;;;5012812;28;20564;-74
2022/07/09 09:34:08;;;;;;;1.08;0.95;;;34.10;45.40;;;;;;5028174;28;20200;-74
2022/07/09 09:36:43;;;;;;;1.08;0.60;;;34.40;45.30;;;;;;5037650;28;20227;-73
2022/07/09 09:39:10;;;;;;;2.65;0.93;;;34.40;42.50;;;;;;5031984;28;20233;-75
2022/07/09 09:41:36;;;;;;;2.60;1.10;;;33.90;43.80;;;;;;5032258;28;20182;-75
2022/07/09 09:44:08;;;;;;;1.00;0.90;;;33.70;44.60;;;;;;5032451;28;20186;-75
2022/07/09 09:46:34;;;;;;;1.70;1.00;;;33.60;45.80;;;;;;5031986;28;20182;-75
2022/07/09 09:49:00;;;;;;;1.63;1.10;;;33.70;45.30;;;;;;5031513;28;20224;-74
2022/07/09 09:51:30;;;;;;;2.17;0.90;;;33.80;45.90;;;;;;5032271;28;20229;-74
2022/07/09 09:53:56;;;;;;;1.90;0.82;;;33.90;44.80;;;;;;5029516;28;20208;-74
2022/07/09 09:56:23;;;;;;;2.25;0.80;;;33.90;44.60;;;;;;5032250;28;20197;-75
2022/07/09 09:58:49;;;;;;;1.15;1.05;;;34.20;45.50;;;;;;5031389;28;20235;-75
2022/07/09 10:01:15;;;;;;;4.30;1.00;;;34.50;44.70;;;;;;5030758;28;20173;-73
2022/07/09 10:03:41;;;;;;;2.15;1.00;;;34.20;44.10;;;;;;5025417;28;20181;-72
2022/07/09 10:06:06;;;;;;;1.50;0.88;;;34.30;45.70;;;;;;5012346;28;20174;-73
2022/07/09 10:08:32;;;;;;;1.10;1.00;;;34.10;45.00;;;;;;5024957;28;20186;-75
2022/07/09 10:10:58;;;;;;;1.35;1.10;;;34.20;44.30;;;;;;5031939;28;20265;-78
2022/07/09 10:13:23;;;;;;;3.95;1.40;;;34.50;45.80;;;;;;5034253;28;20200;-78
2022/07/09 10:15:49;;;;;;;2.03;1.23;;;34.70;43.20;;;;;;5027550;28;20186;-73
2022/07/09 10:18:18;;;;;;;1.77;1.05;;;34.90;42.90;;;;;;5018367;28;20182;-74
2022/07/09 10:20:44;;;;;;;1.80;1.13;;;34.90;42.90;;;;;;5020118;28;20169;-75
2022/07/09 10:23:22;;;;;;;2.13;1.08;;;34.30;42.70;;;;;;5019438;28;20177;-76
2022/07/09 10:25:52;;;;;;;0.70;0.70;;;33.80;44.50;;;;;;5019160;28;20205;-76
2022/07/09 10:28:18;;;;;;;0.73;0.68;;;33.60;45.10;;;;;;5013070;28;20673;-79
2022/07/09 10:30:45;;;;;;;1.85;0.98;;;33.40;44.60;;;;;;5030846;28;20212;-73
2022/07/09 10:33:12;;;;;;;1.10;1.00;;;32.90;45.30;;;;;;5026147;28;20249;-79
2022/07/09 10:35:46;;;;;;;0.70;0.70;;;32.20;45.10;;;;;;5033265;28;20174;-73
2022/07/09 10:38:12;;;;;;;1.52;0.82;;;31.60;45.30;;;;;;5037100;28;20189;-75
2022/07/09 10:40:45;;;;;;;1.92;0.57;;;31.30;47.30;;;;;;5031889;28;20236;-80
2022/07/09 10:43:12;;;;;;;0.90;0.63;;;31.50;47.60;;;;;;5031700;28;20535;-76
2022/07/09 10:45:39;;;;;;;1.15;0.80;;;32.00;46.90;;;;;;5032196;28;20679;-69
2022/07/09 10:48:06;;;;;;;1.10;0.80;;;32.70;46.00;;;;;;5031141;28;20185;-76
2022/07/09 10:50:35;;;;;;;2.25;1.10;;;33.30;44.70;;;;;;5027545;28;20236;-72
2022/07/09 10:53:01;;;;;;;2.13;0.65;;;33.80;44.80;;;;;;5037913;28;20221;-72
2022/07/09 10:55:27;;;;;;;2.05;0.73;;;34.00;43.00;;;;;;5036882;28;20252;-71
2022/07/09 10:57:54;;;;;;;1.38;1.27;;;34.00;41.50;;;;;;5031422;28;20210;-74
2022/07/09 11:00:28;;;;;;;1.63;1.27;;;34.00;41.60;;;;;;5027251;28;20224;-72
2022/07/09 11:02:58;;;;;;;1.73;1.05;;;33.60;40.90;;;;;;5031216;28;20182;-72
2022/07/09 11:05:25;;;;;;;1.40;1.15;;;33.10;42.80;;;;;;5022668;28;20174;-71
2022/07/09 11:08:05;;;;;;;2.53;0.85;;;32.40;43.70;;;;;;5023498;28;20210;-71
2022/07/09 11:10:32;;;;;;;5.72;1.20;;;31.40;45.20;;;;;;5030987;28;20664;-71
2022/07/09 11:12:59;;;;;;;2.83;1.02;;;30.70;47.00;;;;;;5030623;28;20221;-71
2022/07/09 11:15:27;;;;;;;0.80;0.80;;;30.70;48.10;;;;;;5030676;28;20178;-71
2022/07/09 11:18:05;;;;;;;1.63;1.02;;;30.90;48.50;;;;;;5030870;28;20277;-71
2022/07/09 11:20:38;;;;;;;4.22;3.13;;;31.50;47.20;;;;;;5030379;28;20182;-70
2022/07/09 11:23:03;;;;;;;1.20;1.00;;;31.90;47.10;;;;;;5031208;28;20178;-71
2022/07/09 11:25:29;;;;;;;2.20;1.20;;;31.80;45.40;;;;;;5034058;28;20178;-71
2022/07/09 11:27:59;;;;;;;4.57;1.42;;;31.70;45.30;;;;;;5034849;28;20174;-71
2022/07/09 11:30:27;;;;;;;1.77;1.15;;;31.60;46.00;;;;;;5034404;28;20312;-71
2022/07/09 11:32:53;;;;;;;1.70;1.00;;;31.60;45.80;;;;;;5034638;28;20211;-71
2022/07/09 11:35:24;;;;;;;1.65;0.98;;;31.70;45.60;;;;;;5034506;28;20522;-71
2022/07/09 11:37:49;;;;;;;1.02;0.90;;;32.00;45.70;;;;;;5034821;28;20193;-71
2022/07/09 11:40:17;;;;;;;1.80;1.05;;;32.40;46.40;;;;;;5034491;28;20233;-71
2022/07/09 11:42:43;;;;;;;2.08;1.20;;;32.50;45.50;;;;;;5033190;28;20182;-71
2022/07/09 11:45:09;;;;;;;4.10;1.45;;;32.60;45.30;;;;;;5054561;28;20646;-71
2022/07/09 11:47:37;;;;;;;1.30;1.20;;;32.50;45.40;;;;;;5036723;28;20273;-72
2022/07/09 11:50:11;;;;;;;2.58;1.40;;;32.40;45.20;;;;;;5029293;28;20186;-72
2022/07/09 11:52:44;;;;;;;5.40;1.65;;;32.10;44.80;;;;;;5034361;28;20222;-72
2022/07/09 11:55:11;;;;;;;2.58;1.33;;;31.60;45.10;;;;;;5034103;28;20216;-70
2022/07/09 11:57:37;;;;;;;3.00;1.40;;;31.30;46.20;;;;;;5034026;28;20182;-72
2022/07/09 12:00:08;;;;;;;2.53;2.10;;;31.30;47.70;;;;;;5034112;28;20217;-71
2022/07/09 12:02:36;;;;;;;2.08;1.67;;;31.60;48.10;;;;;;5034195;28;20216;-72
2022/07/09 12:05:04;;;;;;;2.60;1.30;;;31.90;47.50;;;;;;5026677;28;20213;-72
2022/07/09 12:07:30;;;;;;;4.47;1.40;;;32.20;48.00;;;;;;5016099;28;20228;-74
2022/07/09 12:10:10;;;;;;;3.42;1.40;;;32.60;46.70;;;;;;5033737;28;20174;-72
2022/07/09 12:12:37;;;;;;;2.40;1.40;;;33.10;45.50;;;;;;5033896;28;20268;-73
2022/07/09 12:15:08;;;;;;;1.52;1.30;;;33.10;44.90;;;;;;5034065;28;20185;-72
2022/07/09 12:17:33;;;;;;;2.13;1.50;;;33.00;45.90;;;;;;5033634;28;20235;-72
2022/07/09 12:19:59;;;;;;;3.30;1.25;;;33.10;45.80;;;;;;5032922;28;20190;-74
2022/07/09 12:22:25;;;;;;;1.92;1.50;;;33.10;45.30;;;;;;5033400;28;20186;-73
2022/07/09 12:24:52;;;;;;;2.20;1.33;;;33.00;45.50;;;;;;5033592;28;20190;-72
2022/07/09 12:27:19;;;;;;;1.75;1.45;;;32.90;44.70;;;;;;5031629;28;20610;-73
2022/07/09 12:29:45;;;;;;;2.20;1.98;;;32.80;45.60;;;;;;5032850;28;20562;-73
2022/07/09 12:32:11;;;;;;;3.22;1.50;;;33.00;46.20;;;;;;5029106;28;20234;-73
2022/07/09 12:34:37;;;;;;;2.00;1.88;;;32.90;46.10;;;;;;5020356;28;20233;-73
2022/07/09 12:37:02;;;;;;;1.67;1.58;;;32.70;45.10;;;;;;5030640;28;20190;-71
2022/07/09 12:39:28;;;;;;;2.47;1.50;;;32.50;45.80;;;;;;5032910;28;20267;-71
2022/07/09 12:41:54;;;;;;;1.95;1.63;;;32.10;46.30;;;;;;5033031;28;20547;-71